Time;durP1;ratioP1;P1;durP2;ratioP2;P2;SDS_P1;SDS_P2;PMS_P1;PMS_P2;Temp;Humidity;BMP_temperature;BMP_pressure;BME280_temperature;BME280_humidity;BME280_pressure;Samples;Min_cycle;Max_cycle;Signal;HPM_P1;HPM_P2
2022/07/13 00:01:21;;;;;;;;;;;20.50;99.90;;;;;;5064292;28;19908;-57
2022/07/13 00:03:47;;;;;;;;;;;20.40;99.90;;;;;;5063457;28;20365;-56
2022/07/13 00:06:12;;;;;;;;;;;20.50;99.90;;;;;;5069261;28;19913;-62
2022/07/13 00:08:38;;;;;;;;;;;20.40;99.90;;;;;;5066893;28;19916;-57
2022/07/13 00:11:03;;;;;;;;;;;20.40;99.90;;;;;;5062441;28;20004;-57
2022/07/13 00:13:32;;;;;;;;;;;20.40;99.90;;;;;;5062964;28;19917;-57
2022/07/13 00:15:57;;;;;;;;;;;20.40;99.90;;;;;;5066689;28;19917;-58
2022/07/13 00:18:23;;;;;;;;;;;20.40;99.90;;;;;;5064707;28;20055;-58
2022/07/13 00:20:48;;;;;;;;;;;20.40;99.90;;;;;;5063454;28;20385;-59
2022/07/13 00:23:14;;;;;;;;;;;20.40;99.90;;;;;;5063104;28;20472;-57
2022/07/13 00:25:39;;;;;;;;;;;20.40;99.90;;;;;;5050648;28;19919;-57
2022/07/13 00:28:05;;;;;;;;;;;20.40;99.90;;;;;;5067252;28;19923;-57
2022/07/13 00:30:30;;;;;;;;;;;20.30;99.90;;;;;;5068518;28;19924;-57
2022/07/13 00:32:56;;;;;;;;;;;20.30;99.90;;;;;;5049102;28;19956;-56
2022/07/13 00:35:21;;;;;;;;;;;20.30;99.90;;;;;;5072312;28;19982;-58
2022/07/13 00:37:47;;;;;;;;;;;20.30;99.90;;;;;;5067581;28;19966;-56
2022/07/13 00:40:12;;;;;;;;;;;20.30;99.90;;;;;;5066677;28;19976;-55
2022/07/13 00:42:38;;;;;;;;;;;20.30;99.90;;;;;;5065070;28;19923;-55
2022/07/13 00:45:07;;;;;;;;;;;20.30;99.90;;;;;;5066906;28;20384;-58
2022/07/13 00:47:32;;;;;;;;;;;20.30;99.90;;;;;;5069504;28;19919;-57
2022/07/13 00:49:59;;;;;;;;;;;20.30;99.90;;;;;;5067125;28;19913;-60
2022/07/13 00:52:25;;;;;;;;;;;20.20;99.90;;;;;;5066863;28;19943;-57
2022/07/13 00:54:50;;;;;;;;;;;20.20;99.90;;;;;;5065052;28;20368;-58
2022/07/13 00:57:16;;;;;;;;;;;20.30;99.90;;;;;;5065489;28;19912;-58
2022/07/13 00:59:42;;;;;;;;;;;20.30;99.90;;;;;;5066059;28;19912;-57
2022/07/13 01:02:07;;;;;;;;;;;20.30;99.90;;;;;;5067184;28;19917;-55
2022/07/13 01:04:33;;;;;;;;;;;20.30;99.90;;;;;;5066887;28;19971;-57
2022/07/13 01:06:59;;;;;;;;;;;20.20;99.90;;;;;;5067506;28;19935;-58
2022/07/13 01:09:25;;;;;;;;;;;20.20;99.90;;;;;;5066271;28;19992;-57
2022/07/13 01:11:51;;;;;;;;;;;20.20;99.90;;;;;;5064536;28;19996;-60
2022/07/13 01:14:17;;;;;;;;;;;20.20;99.90;;;;;;5063650;28;19909;-57
2022/07/13 01:16:43;;;;;;;;;;;20.20;99.90;;;;;;5066109;28;19909;-58
2022/07/13 01:19:12;;;;;;;;;;;20.20;99.90;;;;;;5068929;28;20278;-55
2022/07/13 01:21:43;;;;;;;;;;;20.20;99.90;;;;;;5065386;28;19995;-56
2022/07/13 01:24:09;;;;;;;;;;;20.20;99.90;;;;;;5065613;28;19935;-57
2022/07/13 01:26:35;;;;;;;;;;;20.20;99.90;;;;;;5047509;28;19909;-57
2022/07/13 01:29:01;;;;;;;;;;;20.20;99.90;;;;;;5068990;28;19909;-58
2022/07/13 01:31:44;;;;;;;;;;;20.20;99.90;;;;;;5067181;28;20223;-57
2022/07/13 01:34:10;;;;;;;;;;;20.20;99.90;;;;;;5047246;28;19978;-58
2022/07/13 01:36:35;;;;;;;;;;;20.20;99.90;;;;;;5065111;28;19916;-57
2022/07/13 01:39:02;;;;;;;;;;;20.20;99.90;;;;;;5065229;28;19913;-58
2022/07/13 01:41:28;;;;;;;;;;;20.20;99.90;;;;;;5065138;28;20266;-58
2022/07/13 01:43:54;;;;;;;;;;;20.10;99.90;;;;;;5066995;28;19915;-59
2022/07/13 01:46:20;;;;;;;;;;;20.10;99.90;;;;;;5067249;28;20369;-59
2022/07/13 01:48:45;;;;;;;;;;;20.10;99.90;;;;;;5064613;28;19913;-60
2022/07/13 01:51:11;;;;;;;;;;;20.10;99.90;;;;;;5064324;28;19935;-59
2022/07/13 01:53:36;;;;;;;;;;;20.10;99.90;;;;;;5065354;28;19916;-58
2022/07/13 01:56:05;;;;;;;;;;;20.10;99.90;;;;;;5062781;28;19931;-58
2022/07/13 01:58:30;;;;;;;;;;;20.10;99.90;;;;;;5064589;28;19940;-56
2022/07/13 02:00:58;;;;;;;;;;;20.10;99.90;;;;;;5045854;28;19952;-56
2022/07/13 02:03:24;;;;;;;;;;;20.00;99.90;;;;;;5066143;28;19917;-59
2022/07/13 02:05:49;;;;;;;;;;;20.10;99.90;;;;;;5064380;28;19934;-58
2022/07/13 02:08:15;;;;;;;;;;;20.00;99.90;;;;;;5064034;28;19996;-58
2022/07/13 02:10:40;;;;;;;;;;;20.00;99.90;;;;;;5063183;28;19916;-59
2022/07/13 02:13:07;;;;;;;;;;;20.00;99.90;;;;;;5059970;28;19947;-61
2022/07/13 02:15:33;;;;;;;;;;;20.00;99.90;;;;;;5062318;28;19909;-60
2022/07/13 02:17:58;;;;;;;;;;;20.00;99.90;;;;;;5064790;28;19982;-57
2022/07/13 02:20:24;;;;;;;;;;;20.00;99.90;;;;;;5064635;28;19908;-58
2022/07/13 02:22:50;;;;;;;;;;;20.00;99.90;;;;;;5064604;28;19915;-57
2022/07/13 02:25:15;;;;;;;;;;;20.00;99.90;;;;;;5063993;28;19920;-58
2022/07/13 02:27:41;;;;;;;;;;;20.00;99.90;;;;;;5064223;28;19909;-57
2022/07/13 02:30:07;;;;;;;;;;;20.00;99.90;;;;;;5049245;28;19913;-57
2022/07/13 02:32:33;;;;;;;;;;;20.00;99.90;;;;;;5061696;28;20186;-56
2022/07/13 02:34:59;;;;;;;;;;;20.00;99.90;;;;;;5088952;22;19912;-56
2022/07/13 02:37:24;;;;;;;;;;;20.00;99.90;;;;;;5064379;28;20343;-51
2022/07/13 02:39:51;;;;;;;;;;;20.00;99.90;;;;;;5053869;28;19909;-55
2022/07/13 02:42:17;;;;;;;;;;;20.00;99.90;;;;;;5053794;28;20435;-52
2022/07/13 02:44:42;;;;;;;;;;;20.00;99.90;;;;;;5053905;28;19913;-52
2022/07/13 02:47:08;;;;;;;;;;;20.00;99.90;;;;;;5053896;28;19909;-54
2022/07/13 02:49:33;;;;;;;;;;;20.00;99.90;;;;;;5053303;28;19909;-52
2022/07/13 02:51:59;;;;;;;;;;;20.00;99.90;;;;;;5053564;28;19916;-54
2022/07/13 02:54:24;;;;;;;;;;;20.00;99.90;;;;;;5053691;28;19916;-54
2022/07/13 02:56:50;;;;;;;;;;;19.90;99.90;;;;;;5053708;28;19909;-56
2022/07/13 02:59:15;;;;;;;;;;;19.90;99.90;;;;;;5053592;28;20277;-55
2022/07/13 03:01:41;;;;;;;;;;;20.00;99.90;;;;;;5053558;28;19952;-55
2022/07/13 03:04:06;;;;;;;;;;;19.90;99.90;;;;;;5053547;28;19935;-57
2022/07/13 03:06:32;;;;;;;;;;;19.90;99.90;;;;;;5064778;28;19919;-57
2022/07/13 03:08:57;;;;;;;;;;;19.90;99.90;;;;;;5054636;28;20380;-55
2022/07/13 03:11:23;;;;;;;;;;;19.90;99.90;;;;;;5062240;28;19909;-57
2022/07/13 03:13:48;;;;;;;;;;;19.90;99.90;;;;;;5053208;28;20274;-57
2022/07/13 03:16:14;;;;;;;;;;;19.90;99.90;;;;;;5053171;28;19954;-56
2022/07/13 03:18:39;;;;;;;;;;;19.90;99.90;;;;;;5035227;28;19913;-56
2022/07/13 03:21:08;;;;;;;;;;;19.80;99.90;;;;;;5053786;28;19912;-56
2022/07/13 03:23:34;;;;;;;;;;;19.80;99.90;;;;;;5053294;28;20293;-57
2022/07/13 03:26:00;;;;;;;;;;;19.80;99.90;;;;;;5053442;28;19995;-56
2022/07/13 03:28:26;;;;;;;;;;;19.80;99.90;;;;;;5053016;28;19951;-57
2022/07/13 03:30:51;;;;;;;;;;;19.80;99.90;;;;;;5052590;28;19966;-57
2022/07/13 03:33:16;;;;;;;;;;;19.80;99.90;;;;;;5053040;28;19909;-56
2022/07/13 03:35:42;;;;;;;;;;;19.80;99.90;;;;;;5052875;28;19924;-57
2022/07/13 03:38:08;;;;;;;;;;;19.80;99.90;;;;;;5052894;28;19913;-57
2022/07/13 03:40:33;;;;;;;;;;;19.80;99.90;;;;;;5053344;28;19912;-57
2022/07/13 03:42:59;;;;;;;;;;;19.80;99.90;;;;;;5052985;28;19909;-57
2022/07/13 03:45:24;;;;;;;;;;;19.80;99.90;;;;;;5053041;28;19912;-57
2022/07/13 03:47:50;;;;;;;;;;;19.80;99.90;;;;;;5053342;28;20285;-54
2022/07/13 03:50:15;;;;;;;;;;;19.80;99.90;;;;;;5052534;28;19966;-54
2022/07/13 03:52:41;;;;;;;;;;;19.80;99.90;;;;;;5053342;28;19975;-56
2022/07/13 03:55:07;;;;;;;;;;;19.80;99.90;;;;;;5053531;28;20388;-54
2022/07/13 03:57:33;;;;;;;;;;;19.80;99.90;;;;;;5054024;28;19908;-56
2022/07/13 03:59:58;;;;;;;;;;;19.90;99.90;;;;;;5053763;28;19916;-55
2022/07/13 04:02:24;;;;;;;;;;;19.90;99.90;;;;;;5056953;28;19908;-54
2022/07/13 04:04:49;;;;;;;;;;;19.90;99.90;;;;;;5056908;28;19909;-57
2022/07/13 04:07:15;;;;;;;;;;;19.90;99.90;;;;;;5038488;28;19920;-57
2022/07/13 04:09:40;;;;;;;;;;;19.90;99.90;;;;;;5044525;28;20425;-55
2022/07/13 04:12:06;;;;;;;;;;;19.90;99.90;;;;;;5056749;28;20058;-57
2022/07/13 04:14:32;;;;;;;;;;;19.90;99.90;;;;;;5038743;28;19948;-56
2022/07/13 04:16:57;;;;;;;;;;;20.00;99.90;;;;;;5056998;28;19944;-56
2022/07/13 04:19:23;;;;;;;;;;;20.00;99.90;;;;;;5055236;28;19913;-53
2022/07/13 04:21:48;;;;;;;;;;;20.00;99.90;;;;;;5056798;28;19951;-53
2022/07/13 04:24:14;;;;;;;;;;;20.10;99.90;;;;;;5056464;28;20003;-55
2022/07/13 04:26:39;;;;;;;;;;;20.10;99.90;;;;;;5056254;28;19931;-54
2022/07/13 04:29:05;;;;;;;;;;;20.10;99.90;;;;;;5056355;28;19919;-57
2022/07/13 04:31:30;;;;;;;;;;;20.10;99.90;;;;;;5056090;28;19909;-57
2022/07/13 04:33:56;;;;;;;;;;;20.20;99.90;;;;;;5052501;28;20385;-57
2022/07/13 04:36:21;;;;;;;;;;;20.30;99.90;;;;;;5036290;28;20009;-57
2022/07/13 04:38:47;;;;;;;;;;;20.30;99.90;;;;;;5036583;28;19921;-56
2022/07/13 04:41:13;;;;;;;;;;;20.30;99.90;;;;;;5036574;28;19909;-55
2022/07/13 04:43:38;;;;;;;;;;;20.40;99.90;;;;;;5035962;28;19935;-55
2022/07/13 04:46:04;;;;;;;;;;;20.30;99.90;;;;;;5036340;28;20008;-56
2022/07/13 04:48:29;;;;;;;;;;;20.40;99.90;;;;;;5036262;28;20366;-57
2022/07/13 04:50:55;;;;;;;;;;;20.40;99.90;;;;;;5036312;28;19913;-56
2022/07/13 04:53:21;;;;;;;;;;;20.30;99.90;;;;;;5035876;28;19999;-56
2022/07/13 04:55:46;;;;;;;;;;;20.40;99.90;;;;;;5035864;28;19955;-56
2022/07/13 04:58:12;;;;;;;;;;;20.30;99.90;;;;;;5036050;28;20289;-55
2022/07/13 05:00:38;;;;;;;;;;;20.40;99.90;;;;;;5035925;28;19909;-57
2022/07/13 05:03:03;;;;;;;;;;;20.40;99.90;;;;;;5035929;28;19909;-57
2022/07/13 05:05:31;;;;;;;;;;;20.40;99.90;;;;;;5035713;28;19995;-56
2022/07/13 05:07:58;;;;;;;;;;;20.40;99.90;;;;;;5035604;28;20453;-57
2022/07/13 05:10:24;;;;;;;;;;;20.40;99.90;;;;;;5035966;28;19999;-57
2022/07/13 05:12:49;;;;;;;;;;;20.40;99.90;;;;;;5035439;28;19960;-57
2022/07/13 05:15:15;;;;;;;;;;;20.50;99.90;;;;;;5035602;28;19920;-56
2022/07/13 05:17:40;;;;;;;;;;;20.50;99.90;;;;;;5035504;28;19962;-54
2022/07/13 05:20:07;;;;;;;;;;;20.50;99.90;;;;;;5035355;28;20246;-58
2022/07/13 05:22:32;;;;;;;;;;;20.60;99.90;;;;;;5035646;28;19909;-56
2022/07/13 05:24:59;;;;;;;;;;;20.60;99.90;;;;;;5035574;28;20282;-53
2022/07/13 05:27:24;;;;;;;;;;;20.60;99.90;;;;;;5035309;28;19909;-56
2022/07/13 05:29:50;;;;;;;;;;;20.70;99.90;;;;;;5035639;28;20255;-58
2022/07/13 05:32:16;;;;;;;;;;;20.70;99.90;;;;;;5017369;28;20008;-54
2022/07/13 05:34:41;;;;;;;;;;;20.80;99.90;;;;;;5035442;28;19916;-57
2022/07/13 05:37:07;;;;;;;;;;;20.80;99.90;;;;;;5034855;28;19925;-57
2022/07/13 05:39:32;;;;;;;;;;;20.80;99.90;;;;;;5035039;28;19955;-56
2022/07/13 05:41:58;;;;;;;;;;;20.90;99.90;;;;;;5035175;28;19915;-57
2022/07/13 05:44:23;;;;;;;;;;;20.90;99.90;;;;;;5034793;28;19909;-54
2022/07/13 05:46:49;;;;;;;;;;;20.90;99.90;;;;;;5034915;28;19917;-53
2022/07/13 05:49:15;;;;;;;;;;;21.00;99.90;;;;;;5034807;28;19920;-51
2022/07/13 05:51:40;;;;;;;;;;;21.10;99.90;;;;;;5034783;28;19936;-54
2022/07/13 05:54:06;;;;;;;;;;;21.20;99.90;;;;;;5034449;28;19913;-57
2022/07/13 05:56:31;;;;;;;;;;;21.30;99.90;;;;;;5038105;28;20312;-56
2022/07/13 05:58:57;;;;;;;;;;;21.40;99.90;;;;;;5054514;28;19917;-53
2022/07/13 06:01:22;;;;;;;;;;;21.50;99.90;;;;;;5054454;28;19915;-57
2022/07/13 06:03:48;;;;;;;;;;;21.60;99.90;;;;;;5053205;28;19931;-56
2022/07/13 06:06:13;;;;;;;;;;;21.60;99.90;;;;;;5055008;28;20385;-55
2022/07/13 06:08:39;;;;;;;;;;;21.70;99.90;;;;;;5054557;28;19962;-56
2022/07/13 06:11:04;;;;;;;;;;;21.70;99.90;;;;;;5054547;28;19913;-54
2022/07/13 06:13:30;;;;;;;;;;;21.70;99.90;;;;;;5054373;28;19908;-53
2022/07/13 06:15:57;;;;;;;;;;;21.70;99.90;;;;;;5053976;28;19913;-57
2022/07/13 06:18:23;;;;;;;;;;;21.80;99.90;;;;;;5054038;28;19913;-57
2022/07/13 06:20:48;;;;;;;;;;;21.80;99.90;;;;;;5053974;28;20441;-55
2022/07/13 06:23:16;;;;;;;;;;;21.90;99.90;;;;;;5053241;28;19909;-56
2022/07/13 06:25:43;;;;;;;;;;;21.90;99.90;;;;;;5053978;28;20284;-52
2022/07/13 06:28:08;;;;;;;;;;;21.90;99.90;;;;;;5054238;28;19913;-55
2022/07/13 06:30:34;;;;;;;;;;;22.00;99.90;;;;;;5054122;28;19908;-55
2022/07/13 06:33:00;;;;;;;;;;;22.00;99.90;;;;;;5054617;28;19909;-55
2022/07/13 06:35:25;;;;;;;;;;;22.00;99.90;;;;;;5053670;28;19936;-54
2022/07/13 06:37:51;;;;;;;;;;;22.10;99.90;;;;;;5055135;28;19916;-55
2022/07/13 06:40:16;;;;;;;;;;;22.10;99.90;;;;;;5054303;28;19916;-55
2022/07/13 06:42:43;;;;;;;;;;;22.20;99.90;;;;;;5053916;28;19975;-54
2022/07/13 06:45:08;;;;;;;;;;;22.20;99.90;;;;;;5053870;28;20370;-56
2022/07/13 06:47:34;;;;;;;;;;;22.30;99.90;;;;;;5054196;28;19916;-56
2022/07/13 06:49:59;;;;;;;;;;;22.40;99.90;;;;;;5053907;28;19917;-54
2022/07/13 06:52:25;;;;;;;;;;;22.40;99.90;;;;;;5053842;28;19984;-55
2022/07/13 06:54:50;;;;;;;;;;;22.50;99.90;;;;;;5053325;28;20320;-54
2022/07/13 06:57:16;;;;;;;;;;;22.50;99.90;;;;;;5053805;28;19909;-55
2022/07/13 06:59:42;;;;;;;;;;;22.50;99.90;;;;;;5053405;28;20274;-54
2022/07/13 07:02:08;;;;;;;;;;;22.60;99.90;;;;;;5053639;28;20341;-55
2022/07/13 07:04:34;;;;;;;;;;;22.60;99.90;;;;;;5053201;28;19916;-55
2022/07/13 07:07:00;;;;;;;;;;;22.60;99.90;;;;;;5053343;28;20378;-54
2022/07/13 07:09:26;;;;;;;;;;;22.60;99.90;;;;;;5053525;28;19920;-54
2022/07/13 07:11:51;;;;;;;;;;;22.70;99.90;;;;;;5053496;28;20274;-56
2022/07/13 07:14:17;;;;;;;;;;;22.80;99.90;;;;;;5052610;28;19909;-55
2022/07/13 07:16:43;;;;;;;;;;;22.90;99.90;;;;;;5053673;28;19908;-56
2022/07/13 07:19:09;;;;;;;;;;;22.90;99.90;;;;;;5053695;28;19913;-56
2022/07/13 07:21:34;;;;;;;;;;;23.00;99.90;;;;;;5053748;28;19909;-53
2022/07/13 07:24:00;;;;;;;;;;;23.10;99.90;;;;;;5053142;28;20279;-56
2022/07/13 07:26:26;;;;;;;;;;;23.20;99.90;;;;;;5053138;28;19909;-55
2022/07/13 07:28:51;;;;;;;;;;;23.30;99.90;;;;;;5053188;28;20275;-56
2022/07/13 07:31:17;;;;;;;;;;;23.40;99.90;;;;;;5053064;28;19909;-55
2022/07/13 07:33:42;;;;;;;;;;;23.50;99.90;;;;;;5052991;28;19916;-55
2022/07/13 07:36:08;;;;;;;;;;;23.60;99.90;;;;;;5056975;28;19916;-56
2022/07/13 07:38:33;;;;;;;;;;;23.70;99.90;;;;;;5057081;28;19962;-57
2022/07/13 07:40:59;;;;;;;;;;;23.70;99.90;;;;;;5057017;28;19908;-53
2022/07/13 07:43:24;;;;;;;;;;;23.80;99.90;;;;;;5057046;28;19920;-54
2022/07/13 07:45:50;;;;;;;;;;;23.80;99.90;;;;;;5056436;28;19928;-56
2022/07/13 07:48:15;;;;;;;;;;;23.80;99.90;;;;;;5056820;28;19908;-57
2022/07/13 07:50:41;;;;;;;;;;;23.80;99.90;;;;;;5056882;28;20285;-57
2022/07/13 07:53:06;;;;;;;;;;;23.80;99.90;;;;;;5057351;28;19920;-56
2022/07/13 07:55:32;;;;;;;;;;;23.80;99.90;;;;;;5056853;28;19909;-57
2022/07/13 07:57:58;;;;;;;;;;;23.90;99.90;;;;;;5057042;28;19917;-55
2022/07/13 08:00:24;;;;;;;;;;;23.90;99.90;;;;;;5057009;28;19909;-53
2022/07/13 08:02:49;;;;;;;;;;;23.90;99.90;;;;;;5056530;28;19919;-52
2022/07/13 08:05:15;;;;;;;;;;;23.90;99.90;;;;;;5056621;28;20293;-52
2022/07/13 08:07:42;;;;;;;;;;;23.90;99.90;;;;;;5055671;28;19909;-52
2022/07/13 08:10:08;;;;;;;;;;;24.00;99.90;;;;;;5056426;28;20356;-55
2022/07/13 08:12:33;;;;;;;;;;;24.10;99.90;;;;;;5055358;28;19909;-56
2022/07/13 08:14:59;;;;;;;;;;;24.20;99.90;;;;;;5056748;28;20405;-56
2022/07/13 08:17:24;;;;;;;;;;;24.30;99.90;;;;;;5056536;28;19913;-55
2022/07/13 08:19:50;;;;;;;;;;;24.40;99.90;;;;;;5056339;28;20058;-53
2022/07/13 08:22:15;;;;;;;;;;;24.50;99.90;;;;;;5056214;28;19916;-55
2022/07/13 08:24:41;;;;;;;;;;;24.50;99.90;;;;;;5056441;28;20402;-54
2022/07/13 08:27:06;;;;;;;;;;;24.50;99.90;;;;;;5056270;28;19966;-56
2022/07/13 08:29:32;;;;;;;;;;;24.50;99.90;;;;;;5056247;28;20007;-56
2022/07/13 08:31:57;;;;;;;;;;;24.60;99.90;;;;;;5056154;28;19913;-53
2022/07/13 08:39:51;;;;;;;;;;;24.90;99.90;;;;;;5119092;28;20062;-75
2022/07/13 08:42:17;;;;;;;;;;;25.10;99.90;;;;;;5118926;28;20376;-75
2022/07/13 08:44:42;;;;;;;;;;;25.30;99.90;;;;;;5118861;28;20006;-76
2022/07/13 08:47:09;;;;;;;;;;;25.30;99.90;;;;;;5099397;28;19912;-76
2022/07/13 08:49:35;;;;;;;;;;;25.40;99.90;;;;;;5118688;28;19953;-76
2022/07/13 08:52:01;;;;;;;;;;;25.60;99.90;;;;;;5119012;28;19907;-75
2022/07/13 08:54:26;;;;;;;;;;;25.70;99.90;;;;;;5118160;28;19976;-76
2022/07/13 08:56:52;;;;;;;;;;;25.70;99.90;;;;;;5100116;28;19943;-75
2022/07/13 08:59:18;;;;;;;;;;;25.70;99.90;;;;;;5107084;28;19916;-75
2022/07/13 09:01:43;;;;;;;;;;;25.70;99.90;;;;;;5117009;27;20383;-75
2022/07/13 09:04:10;;;;;;;;;;;25.80;99.90;;;;;;5108175;28;19914;-76
2022/07/13 09:06:39;;;;;;;;;;;25.80;99.90;;;;;;5088671;28;19915;-75
2022/07/13 09:09:05;;;;;;;;;;;25.80;99.90;;;;;;5108035;28;19915;-75
2022/07/13 09:11:31;;;;;;;;;;;25.90;99.90;;;;;;5106425;28;19912;-75
2022/07/13 09:13:56;;;;;;;;;;;26.00;99.90;;;;;;5108859;28;19914;-76
2022/07/13 09:16:23;;;;;;;;;;;26.10;99.90;;;;;;5105684;28;19998;-76
2022/07/13 09:18:53;;;;;;;;;;;26.20;99.90;;;;;;5087484;28;19925;-75
2022/07/13 09:21:19;;;;;;;;;;;26.20;99.90;;;;;;5107141;28;19912;-75
2022/07/13 09:23:47;;;;;;;;;;;26.20;99.90;;;;;;5108072;28;19908;-74
2022/07/13 09:26:13;;;;;;;;;;;26.30;99.90;;;;;;5106684;28;19930;-75
2022/07/13 09:28:45;;;;;;;;;;;26.30;99.90;;;;;;5108356;28;19953;-75
2022/07/13 09:31:14;;;;;;;;;;;26.30;99.90;;;;;;5110598;28;19912;-74
2022/07/13 09:33:40;;;;;;;;;;;26.40;99.90;;;;;;5087859;28;19976;-73
2022/07/13 09:36:22;;;;;;;;;;;26.40;99.90;;;;;;5104153;28;19924;-72
2022/07/13 09:38:51;;;;;;;;;;;26.50;99.90;;;;;;5106631;28;19989;-73
2022/07/13 09:41:24;;;;;;;;;;;26.70;99.90;;;;;;5106699;28;20369;-72
2022/07/13 09:46:36;;;;;;;;;;;27.00;99.90;;;;;;5106113;28;19915;-72
2022/07/13 09:49:02;;;;;;;;;;;27.20;99.90;;;;;;5105742;28;19915;-72
2022/07/13 09:51:27;;;;;;;;;;;27.40;99.90;;;;;;5106831;28;20364;-72
2022/07/13 09:53:54;;;;;;;;;;;27.70;99.90;;;;;;5105093;28;19916;-71
2022/07/13 09:56:23;;;;;;;;;;;28.00;99.90;;;;;;5105599;28;19908;-72
2022/07/13 09:58:49;;;;;;;;;;;28.10;99.90;;;;;;5105679;28;19970;-72
2022/07/13 10:01:14;;;;;;;;;;;28.20;99.90;;;;;;5105544;28;19908;-72
2022/07/13 10:03:40;;;;;;;;;;;28.20;99.90;;;;;;5106683;28;20288;-74
2022/07/13 10:06:06;;;;;;;;;;;28.00;99.90;;;;;;5111682;28;20002;-72
2022/07/13 10:08:32;;;;;;;;;;;28.00;99.90;;;;;;5114616;28;19916;-71
2022/07/13 10:10:57;;;;;;;;;;;28.10;99.90;;;;;;5109244;28;19933;-72
2022/07/13 10:13:23;;;;;;;;;;;28.20;99.90;;;;;;5109976;28;19907;-72
2022/07/13 10:15:49;;;;;;;;;;;28.20;99.90;;;;;;5109960;28;19908;-72
2022/07/13 10:18:22;;;;;;;;;;;28.00;99.90;;;;;;5108084;28;19937;-72
2022/07/13 10:21:01;;;;;;;;;;;28.10;99.90;;;;;;5096088;28;20365;-72
2022/07/13 10:23:34;;;;;;;;;;;28.20;99.90;;;;;;5109853;28;20281;-72
2022/07/13 10:26:00;;;;;;;;;;;28.30;99.90;;;;;;5106201;28;19908;-72
2022/07/13 10:28:26;;;;;;;;;;;28.30;99.90;;;;;;5087984;28;19916;-72
2022/07/13 10:30:51;;;;;;;;;;;28.30;99.90;;;;;;5104751;28;19923;-72
2022/07/13 10:33:18;;;;;;;;;;;28.40;99.90;;;;;;5106036;28;19915;-72
2022/07/13 10:35:51;;;;;;;;;;;28.50;99.90;;;;;;5116573;28;20276;-72
2022/07/13 10:38:18;;;;;;;;;;;28.60;99.90;;;;;;5108436;28;19919;-72
2022/07/13 10:40:43;;;;;;;;;;;28.60;99.90;;;;;;5101971;28;19912;-72
2022/07/13 10:43:09;;;;;;;;;;;28.70;99.90;;;;;;5105189;28;20682;-72
2022/07/13 10:45:41;;;;;;;;;;;28.70;99.90;;;;;;5105036;28;19919;-72
2022/07/13 10:48:07;;;;;;;;;;;28.60;99.90;;;;;;5104385;28;19911;-73
2022/07/13 10:50:48;;;;;;;;;;;28.70;99.90;;;;;;5103130;28;19908;-72
2022/07/13 10:53:17;;;;;;;;;;;28.70;99.90;;;;;;5103936;28;19973;-72
2022/07/13 10:55:48;;;;;;;;;;;28.70;99.90;;;;;;5087556;28;19919;-72
2022/07/13 10:58:32;;;;;;;;;;;28.60;99.90;;;;;;5105931;28;19911;-72
2022/07/13 11:00:58;;;;;;;;;;;28.50;99.90;;;;;;5084689;28;20300;-73
2022/07/13 11:03:26;;;;;;;;;;;28.50;99.90;;;;;;5104909;28;19914;-72
2022/07/13 11:06:15;;;;;;;;;;;28.50;99.90;;;;;;5107151;28;19932;-72
2022/07/13 11:08:40;;;;;;;;;;;28.50;99.90;;;;;;5114719;28;19934;-74
2022/07/13 11:11:13;;;;;;;;;;;28.60;99.90;;;;;;5113915;28;19915;-72
2022/07/13 11:13:41;;;;;;;;;;;28.50;99.90;;;;;;5106759;28;19969;-72
2022/07/13 11:16:07;;;;;;;;;;;28.40;99.90;;;;;;5108626;28;19913;-73
2022/07/13 11:18:37;;;;;;;;;;;28.30;99.90;;;;;;5107085;28;19918;-74
2022/07/13 11:21:16;;;;;;;;;;;28.30;99.90;;;;;;5085413;28;21635;-72
2022/07/13 11:26:34;;;;;;;;;;;28.30;99.90;;;;;;5095760;28;19915;-72
2022/07/13 11:29:14;;;;;;;;;;;28.40;99.90;;;;;;5095360;28;19908;-73
2022/07/13 11:31:40;;;;;;;;;;;28.40;99.90;;;;;;5104306;28;19916;-72
2022/07/13 11:34:07;;;;;;;;;;;28.50;99.90;;;;;;5113455;28;19915;-72
2022/07/13 11:36:32;;;;;;;;;;;28.40;99.90;;;;;;5110067;28;20003;-72
2022/07/13 11:38:58;;;;;;;;;;;28.50;99.90;;;;;;5095752;28;19974;-73
2022/07/13 11:41:24;;;;;;;;;;;28.50;99.90;;;;;;5111755;28;19908;-72
2022/07/13 11:43:50;;;;;;;;;;;28.50;99.90;;;;;;5108773;28;20433;-72
2022/07/13 11:46:24;;;;;;;;;;;28.50;99.90;;;;;;5103991;28;19971;-73
2022/07/13 11:49:04;;;;;;;;;;;28.50;99.90;;;;;;5107631;28;19908;-72
2022/07/13 11:51:30;;;;;;;;;;;28.50;99.90;;;;;;5116264;28;19908;-72
2022/07/13 11:53:55;;;;;;;;;;;28.60;99.90;;;;;;5107919;28;19957;-73
2022/07/13 11:56:22;;;;;;;;;;;28.70;99.90;;;;;;5104218;28;20377;-72
2022/07/13 11:58:48;;;;;;;;;;;28.70;99.90;;;;;;5103656;28;19923;-72
2022/07/13 12:01:17;;;;;;;;;;;28.70;99.90;;;;;;5100659;28;19958;-72
2022/07/13 12:03:46;;;;;;;;;;;28.80;99.90;;;;;;5110646;28;19912;-72
2022/07/13 12:06:12;;;;;;;;;;;28.90;99.90;;;;;;5116344;28;20395;-72
2022/07/13 12:08:38;;;;;;;;;;;28.80;99.90;;;;;;5115978;28;19908;-72
2022/07/13 12:11:05;;;;;;;;;;;28.90;99.90;;;;;;5109769;28;19915;-72
2022/07/13 12:13:33;;;;;;;;;;;28.70;99.90;;;;;;5116746;28;19907;-72
2022/07/13 12:15:58;;;;;;;;;;;28.50;99.90;;;;;;5111640;28;19926;-71
2022/07/13 12:18:24;;;;;;;;;;;28.40;99.90;;;;;;5119928;28;20310;-72
2022/07/13 12:20:50;;;;;;;;;;;28.30;99.90;;;;;;5118940;28;19912;-72
2022/07/13 12:23:17;;;;;;;;;;;28.20;99.90;;;;;;5121696;28;19908;-72
2022/07/13 12:25:43;;;;;;;;;;;28.40;99.90;;;;;;5120816;28;19912;-72
2022/07/13 12:28:09;;;;;;;;;;;28.30;99.90;;;;;;5122844;28;19915;-72
2022/07/13 12:30:35;;;;;;;;;;;28.30;99.90;;;;;;5122334;28;19915;-72
2022/07/13 12:33:05;;;;;;;;;;;28.30;99.90;;;;;;5110089;28;19912;-72
2022/07/13 12:35:30;;;;;;;;;;;28.60;99.90;;;;;;5126281;28;19933;-72
2022/07/13 12:37:57;;;;;;;;;;;28.80;99.90;;;;;;5109724;28;19908;-72
2022/07/13 12:40:35;;;;;;;;;;;29.00;99.90;;;;;;5119294;28;19915;-73
2022/07/13 12:43:02;;;;;;;;;;;29.30;99.90;;;;;;5123712;28;19918;-72
2022/07/13 12:45:31;;;;;;;;;;;29.20;99.90;;;;;;5099333;28;20288;-72
2022/07/13 12:47:57;;;;;;;;;;;29.10;99.90;;;;;;5116392;28;19930;-72
2022/07/13 12:50:26;;;;;;;;;;;28.90;99.90;;;;;;5123779;28;19907;-72
2022/07/13 12:53:00;;;;;;;;;;;28.70;99.90;;;;;;5111159;28;19933;-72
2022/07/13 12:55:26;;;;;;;;;;;28.60;99.90;;;;;;5100746;28;19938;-72
2022/07/13 12:57:52;;;;;;;;;;;28.60;99.90;;;;;;5103209;28;19912;-73
2022/07/13 13:00:25;;;;;;;;;;;28.60;99.90;;;;;;5117547;28;20348;-72
2022/07/13 13:02:50;;;;;;;;;;;28.50;99.90;;;;;;5109272;28;19908;-72
2022/07/13 13:05:16;;;;;;;;;;;28.50;99.90;;;;;;5105351;28;19995;-73
2022/07/13 13:07:44;;;;;;;;;;;28.30;99.90;;;;;;5110828;28;19920;-72
2022/07/13 13:10:10;;;;;;;;;;;28.20;99.90;;;;;;5107822;28;19908;-72
2022/07/13 13:12:37;;;;;;;;;;;27.90;99.90;;;;;;5118343;28;20299;-72
2022/07/13 13:15:03;;;;;;;;;;;27.80;99.90;;;;;;5111988;28;19951;-71
2022/07/13 13:17:29;;;;;;;;;;;27.70;99.90;;;;;;5117480;28;19950;-71
2022/07/13 13:19:55;;;;;;;;;;;27.90;99.90;;;;;;5117286;28;19912;-72
2022/07/13 13:22:21;;;;;;;;;;;28.10;99.90;;;;;;5105968;28;20253;-72
2022/07/13 13:24:47;;;;;;;;;;;28.20;99.90;;;;;;5118649;28;20403;-72
2022/07/13 13:27:13;;;;;;;;;;;28.40;99.90;;;;;;5120787;28;19998;-72
2022/07/13 13:32:23;;;;;;;;;;;28.50;99.90;;;;;;5118936;28;19953;-72
2022/07/13 13:34:49;;;;;;;;;;;28.70;99.90;;;;;;5112232;28;20301;-72
2022/07/13 13:37:14;;;;;;;;;;;28.70;99.90;;;;;;5110722;28;19916;-72
2022/07/13 13:39:40;;;;;;;;;;;28.60;99.90;;;;;;5083715;28;19912;-72
2022/07/13 13:42:05;;;;;;;;;;;28.30;99.90;;;;;;5106921;28;19908;-72
2022/07/13 13:44:31;;;;;;;;;;;28.20;99.90;;;;;;5106189;28;20353;-71
2022/07/13 13:46:56;;;;;;;;;;;28.10;99.90;;;;;;5097439;28;20359;-72
2022/07/13 13:49:22;;;;;;;;;;;28.10;99.90;;;;;;5097716;28;20013;-72
2022/07/13 13:51:48;;;;;;;;;;;27.90;99.90;;;;;;5095471;28;19908;-71
2022/07/13 13:54:14;;;;;;;;;;;28.00;99.90;;;;;;5104388;28;19911;-72
2022/07/13 13:56:39;;;;;;;;;;;28.00;99.90;;;;;;5104207;28;19908;-72
2022/07/13 13:59:05;;;;;;;;;;;28.00;99.90;;;;;;5106478;28;20344;-72
2022/07/13 14:01:30;;;;;;;;;;;28.20;99.90;;;;;;5106753;28;19915;-71
2022/07/13 14:03:56;;;;;;;;;;;28.00;99.90;;;;;;5105443;28;19947;-71
2022/07/13 14:06:22;;;;;;;;;;;27.90;99.90;;;;;;5109034;28;19966;-71
2022/07/13 14:08:47;;;;;;;;;;;27.90;99.90;;;;;;5091630;28;20428;-71
2022/07/13 14:11:13;;;;;;;;;;;27.90;99.90;;;;;;5111874;28;20359;-71
2022/07/13 14:13:40;;;;;;;;;;;27.80;99.90;;;;;;5111572;28;19908;-72
2022/07/13 14:16:06;;;;;;;;;;;27.60;99.90;;;;;;5087520;28;19912;-72
2022/07/13 14:18:32;;;;;;;;;;;27.60;99.90;;;;;;5107580;28;20032;-72
2022/07/13 14:20:58;;;;;;;;;;;27.50;99.90;;;;;;5089624;28;19934;-72
2022/07/13 14:23:23;;;;;;;;;;;27.40;99.90;;;;;;5096269;28;19908;-73
2022/07/13 14:25:49;;;;;;;;;;;27.40;99.90;;;;;;5110264;28;19930;-72